sensor_id;sensor_type;location;lat;lon;timestamp;P1;durP1;ratioP1;P2;durP2;ratioP2
75129;SDS011;63703;44.716;37.846;2023-05-02T00:02:14;6.78;;;3.38;;
75129;SDS011;63703;44.716;37.846;2023-05-02T00:04:40;7.20;;;4.47;;
75129;SDS011;63703;44.716;37.846;2023-05-02T00:07:06;10.88;;;5.90;;
75129;SDS011;63703;44.716;37.846;2023-05-02T00:09:32;10.50;;;5.18;;
75129;SDS011;63703;44.716;37.846;2023-05-02T00:11:58;10.88;;;4.95;;
75129;SDS011;63703;44.716;37.846;2023-05-02T00:14:24;9.20;;;4.95;;
75129;SDS011;63703;44.716;37.846;2023-05-02T00:16:50;9.55;;;5.03;;
75129;SDS011;63703;44.716;37.846;2023-05-02T00:19:19;8.82;;;5.25;;
75129;SDS011;63703;44.716;37.846;2023-05-02T00:21:48;8.68;;;5.63;;
75129;SDS011;63703;44.716;37.846;2023-05-02T00:24:14;8.38;;;4.40;;
75129;SDS011;63703;44.716;37.846;2023-05-02T00:26:42;8.50;;;5.50;;
75129;SDS011;63703;44.716;37.846;2023-05-02T00:29:08;9.10;;;6.63;;
75129;SDS011;63703;44.716;37.846;2023-05-02T00:31:33;8.60;;;4.90;;
75129;SDS011;63703;44.716;37.846;2023-05-02T00:34:00;10.68;;;4.57;;
75129;SDS011;63703;44.716;37.846;2023-05-02T00:36:26;8.25;;;4.22;;
75129;SDS011;63703;44.716;37.846;2023-05-02T00:38:52;8.15;;;4.88;;
75129;SDS011;63703;44.716;37.846;2023-05-02T00:41:18;9.50;;;4.88;;
75129;SDS011;63703;44.716;37.846;2023-05-02T00:43:44;10.52;;;4.80;;
75129;SDS011;63703;44.716;37.846;2023-05-02T00:46:10;7.05;;;3.97;;
75129;SDS011;63703;44.716;37.846;2023-05-02T00:48:37;9.27;;;4.78;;
75129;SDS011;63703;44.716;37.846;2023-05-02T00:51:04;8.38;;;4.90;;
75129;SDS011;63703;44.716;37.846;2023-05-02T00:53:31;10.77;;;6.07;;
75129;SDS011;63703;44.716;37.846;2023-05-02T00:55:57;8.57;;;4.88;;
75129;SDS011;63703;44.716;37.846;2023-05-02T00:58:23;8.38;;;5.90;;
75129;SDS011;63703;44.716;37.846;2023-05-02T01:06:32;8.25;;;4.47;;
75129;SDS011;63703;44.716;37.846;2023-05-02T01:11:59;11.35;;;5.57;;
75129;SDS011;63703;44.716;37.846;2023-05-02T01:14:40;9.00;;;4.22;;
75129;SDS011;63703;44.716;37.846;2023-05-02T01:17:11;9.07;;;4.85;;
75129;SDS011;63703;44.716;37.846;2023-05-02T01:19:43;8.13;;;4.57;;
75129;SDS011;63703;44.716;37.846;2023-05-02T01:22:15;7.13;;;3.75;;
75129;SDS011;63703;44.716;37.846;2023-05-02T01:30:16;8.57;;;5.32;;
75129;SDS011;63703;44.716;37.846;2023-05-02T01:32:45;10.20;;;5.68;;
75129;SDS011;63703;44.716;37.846;2023-05-02T01:35:13;8.68;;;5.50;;
75129;SDS011;63703;44.716;37.846;2023-05-02T01:37:42;7.53;;;5.78;;
75129;SDS011;63703;44.716;37.846;2023-05-02T01:40:10;8.57;;;5.53;;
75129;SDS011;63703;44.716;37.846;2023-05-02T01:42:39;11.10;;;5.72;;
75129;SDS011;63703;44.716;37.846;2023-05-02T01:45:07;11.90;;;5.60;;
75129;SDS011;63703;44.716;37.846;2023-05-02T01:47:36;9.55;;;5.43;;
75129;SDS011;63703;44.716;37.846;2023-05-02T01:50:05;10.05;;;6.22;;
75129;SDS011;63703;44.716;37.846;2023-05-02T01:52:36;13.73;;;6.18;;
75129;SDS011;63703;44.716;37.846;2023-05-02T01:55:02;10.57;;;6.05;;
75129;SDS011;63703;44.716;37.846;2023-05-02T01:57:34;11.18;;;6.53;;
75129;SDS011;63703;44.716;37.846;2023-05-02T02:00:02;9.32;;;5.68;;
75129;SDS011;63703;44.716;37.846;2023-05-02T02:02:41;10.07;;;5.68;;
75129;SDS011;63703;44.716;37.846;2023-05-02T02:05:12;9.13;;;5.18;;
75129;SDS011;63703;44.716;37.846;2023-05-02T02:07:39;14.25;;;7.60;;
75129;SDS011;63703;44.716;37.846;2023-05-02T02:10:05;12.18;;;6.68;;
75129;SDS011;63703;44.716;37.846;2023-05-02T02:12:35;11.30;;;6.47;;
75129;SDS011;63703;44.716;37.846;2023-05-02T02:15:48;8.65;;;5.28;;
75129;SDS011;63703;44.716;37.846;2023-05-02T02:18:01;10.73;;;5.65;;
75129;SDS011;63703;44.716;37.846;2023-05-02T02:20:36;11.75;;;5.30;;
75129;SDS011;63703;44.716;37.846;2023-05-02T02:23:04;10.60;;;6.60;;
75129;SDS011;63703;44.716;37.846;2023-05-02T02:25:33;9.00;;;5.95;;
75129;SDS011;63703;44.716;37.846;2023-05-02T02:28:00;7.95;;;5.10;;
75129;SDS011;63703;44.716;37.846;2023-05-02T02:30:26;8.38;;;5.72;;
75129;SDS011;63703;44.716;37.846;2023-05-02T02:32:52;7.88;;;4.55;;
75129;SDS011;63703;44.716;37.846;2023-05-02T02:35:18;9.93;;;4.97;;
75129;SDS011;63703;44.716;37.846;2023-05-02T02:40:58;8.07;;;4.90;;
75129;SDS011;63703;44.716;37.846;2023-05-02T02:51:49;9.85;;;4.82;;
75129;SDS011;63703;44.716;37.846;2023-05-02T02:54:38;7.28;;;4.60;;
75129;SDS011;63703;44.716;37.846;2023-05-02T02:57:14;8.55;;;5.25;;
75129;SDS011;63703;44.716;37.846;2023-05-02T02:59:53;8.95;;;5.35;;
75129;SDS011;63703;44.716;37.846;2023-05-02T03:02:21;8.23;;;5.43;;
75129;SDS011;63703;44.716;37.846;2023-05-02T03:04:55;8.73;;;7.00;;
75129;SDS011;63703;44.716;37.846;2023-05-02T03:07:22;9.15;;;5.03;;
75129;SDS011;63703;44.716;37.846;2023-05-02T03:09:49;8.50;;;5.15;;
75129;SDS011;63703;44.716;37.846;2023-05-02T03:12:19;9.30;;;4.70;;
75129;SDS011;63703;44.716;37.846;2023-05-02T03:14:47;8.77;;;4.65;;
75129;SDS011;63703;44.716;37.846;2023-05-02T03:17:13;9.75;;;5.28;;
75129;SDS011;63703;44.716;37.846;2023-05-02T03:19:40;7.70;;;5.75;;
75129;SDS011;63703;44.716;37.846;2023-05-02T03:22:06;7.22;;;4.32;;
75129;SDS011;63703;44.716;37.846;2023-05-02T03:24:34;9.55;;;4.68;;
75129;SDS011;63703;44.716;37.846;2023-05-02T03:27:01;7.60;;;4.60;;
75129;SDS011;63703;44.716;37.846;2023-05-02T03:29:33;11.93;;;6.22;;
75129;SDS011;63703;44.716;37.846;2023-05-02T03:31:59;8.50;;;4.65;;
75129;SDS011;63703;44.716;37.846;2023-05-02T03:34:26;8.52;;;5.53;;
75129;SDS011;63703;44.716;37.846;2023-05-02T03:36:52;8.68;;;5.47;;
75129;SDS011;63703;44.716;37.846;2023-05-02T03:39:19;7.82;;;5.13;;
75129;SDS011;63703;44.716;37.846;2023-05-02T03:41:46;9.43;;;4.93;;
75129;SDS011;63703;44.716;37.846;2023-05-02T03:44:16;7.53;;;4.50;;
75129;SDS011;63703;44.716;37.846;2023-05-02T03:46:42;7.47;;;4.60;;
75129;SDS011;63703;44.716;37.846;2023-05-02T03:49:10;8.65;;;5.25;;
75129;SDS011;63703;44.716;37.846;2023-05-02T03:51:39;7.82;;;3.97;;
75129;SDS011;63703;44.716;37.846;2023-05-02T03:54:06;8.55;;;4.32;;
75129;SDS011;63703;44.716;37.846;2023-05-02T03:56:35;6.35;;;4.00;;
75129;SDS011;63703;44.716;37.846;2023-05-02T03:59:16;9.27;;;4.38;;
75129;SDS011;63703;44.716;37.846;2023-05-02T04:01:42;8.93;;;6.55;;
75129;SDS011;63703;44.716;37.846;2023-05-02T04:04:10;6.53;;;4.07;;
75129;SDS011;63703;44.716;37.846;2023-05-02T04:06:43;6.43;;;3.78;;
75129;SDS011;63703;44.716;37.846;2023-05-02T04:09:09;10.68;;;4.88;;
75129;SDS011;63703;44.716;37.846;2023-05-02T04:11:45;9.73;;;6.22;;
75129;SDS011;63703;44.716;37.846;2023-05-02T04:14:12;7.28;;;4.45;;
75129;SDS011;63703;44.716;37.846;2023-05-02T04:16:40;6.00;;;3.40;;
75129;SDS011;63703;44.716;37.846;2023-05-02T04:19:06;9.25;;;4.28;;
75129;SDS011;63703;44.716;37.846;2023-05-02T04:21:35;9.73;;;5.22;;
75129;SDS011;63703;44.716;37.846;2023-05-02T04:24:02;7.00;;;3.38;;
75129;SDS011;63703;44.716;37.846;2023-05-02T04:26:28;7.00;;;4.25;;
75129;SDS011;63703;44.716;37.846;2023-05-02T04:29:01;7.80;;;3.53;;
75129;SDS011;63703;44.716;37.846;2023-05-02T04:31:27;6.30;;;4.00;;
75129;SDS011;63703;44.716;37.846;2023-05-02T04:33:54;8.18;;;4.88;;
75129;SDS011;63703;44.716;37.846;2023-05-02T04:36:23;7.03;;;3.78;;
75129;SDS011;63703;44.716;37.846;2023-05-02T04:38:50;5.00;;;2.78;;
75129;SDS011;63703;44.716;37.846;2023-05-02T04:41:18;4.25;;;3.25;;
75129;SDS011;63703;44.716;37.846;2023-05-02T04:43:50;5.55;;;3.05;;
75129;SDS011;63703;44.716;37.846;2023-05-02T04:46:17;4.55;;;3.50;;
75129;SDS011;63703;44.716;37.846;2023-05-02T04:48:43;7.30;;;3.33;;
75129;SDS011;63703;44.716;37.846;2023-05-02T04:51:09;4.28;;;2.55;;
75129;SDS011;63703;44.716;37.846;2023-05-02T04:53:38;3.92;;;2.53;;
75129;SDS011;63703;44.716;37.846;2023-05-02T04:56:04;4.63;;;2.45;;
75129;SDS011;63703;44.716;37.846;2023-05-02T04:58:33;4.55;;;2.00;;
75129;SDS011;63703;44.716;37.846;2023-05-02T05:01:02;4.00;;;2.13;;
75129;SDS011;63703;44.716;37.846;2023-05-02T05:03:28;4.03;;;2.38;;
75129;SDS011;63703;44.716;37.846;2023-05-02T05:05:56;5.18;;;2.03;;
75129;SDS011;63703;44.716;37.846;2023-05-02T05:08:23;4.10;;;2.08;;
75129;SDS011;63703;44.716;37.846;2023-05-02T05:10:50;4.65;;;2.72;;
75129;SDS011;63703;44.716;37.846;2023-05-02T05:13:17;5.10;;;2.80;;
75129;SDS011;63703;44.716;37.846;2023-05-02T05:15:46;6.45;;;2.42;;
75129;SDS011;63703;44.716;37.846;2023-05-02T05:18:14;5.50;;;1.92;;
75129;SDS011;63703;44.716;37.846;2023-05-02T05:20:40;4.63;;;2.40;;
75129;SDS011;63703;44.716;37.846;2023-05-02T05:23:06;3.47;;;1.98;;
75129;SDS011;63703;44.716;37.846;2023-05-02T05:25:33;2.72;;;1.38;;
75129;SDS011;63703;44.716;37.846;2023-05-02T05:27:59;6.22;;;2.90;;
75129;SDS011;63703;44.716;37.846;2023-05-02T05:30:25;4.72;;;2.67;;
75129;SDS011;63703;44.716;37.846;2023-05-02T05:32:52;3.97;;;2.30;;
75129;SDS011;63703;44.716;37.846;2023-05-02T05:35:18;5.07;;;1.85;;
75129;SDS011;63703;44.716;37.846;2023-05-02T05:37:44;3.60;;;2.03;;
75129;SDS011;63703;44.716;37.846;2023-05-02T05:40:14;5.13;;;2.88;;
75129;SDS011;63703;44.716;37.846;2023-05-02T05:42:44;5.47;;;2.03;;
75129;SDS011;63703;44.716;37.846;2023-05-02T05:45:17;7.07;;;2.00;;
75129;SDS011;63703;44.716;37.846;2023-05-02T05:47:44;4.53;;;2.63;;
75129;SDS011;63703;44.716;37.846;2023-05-02T05:50:10;3.97;;;1.95;;
75129;SDS011;63703;44.716;37.846;2023-05-02T05:52:37;3.63;;;1.55;;
75129;SDS011;63703;44.716;37.846;2023-05-02T05:55:03;6.30;;;2.33;;
75129;SDS011;63703;44.716;37.846;2023-05-02T05:57:30;5.88;;;2.80;;
75129;SDS011;63703;44.716;37.846;2023-05-02T05:59:57;5.53;;;3.13;;
75129;SDS011;63703;44.716;37.846;2023-05-02T06:02:23;4.20;;;1.92;;
75129;SDS011;63703;44.716;37.846;2023-05-02T06:04:49;4.43;;;1.92;;
75129;SDS011;63703;44.716;37.846;2023-05-02T06:07:18;4.25;;;2.22;;
75129;SDS011;63703;44.716;37.846;2023-05-02T06:09:44;5.25;;;2.17;;
75129;SDS011;63703;44.716;37.846;2023-05-02T06:12:11;4.05;;;3.05;;
75129;SDS011;63703;44.716;37.846;2023-05-02T06:14:38;4.63;;;3.75;;
75129;SDS011;63703;44.716;37.846;2023-05-02T06:17:03;2.92;;;1.45;;
75129;SDS011;63703;44.716;37.846;2023-05-02T06:19:30;3.55;;;2.42;;
75129;SDS011;63703;44.716;37.846;2023-05-02T06:21:56;4.30;;;1.92;;
75129;SDS011;63703;44.716;37.846;2023-05-02T06:24:21;4.70;;;1.92;;
75129;SDS011;63703;44.716;37.846;2023-05-02T06:26:47;4.80;;;3.83;;
75129;SDS011;63703;44.716;37.846;2023-05-02T06:29:13;6.85;;;2.35;;
75129;SDS011;63703;44.716;37.846;2023-05-02T06:31:39;3.88;;;1.85;;
75129;SDS011;63703;44.716;37.846;2023-05-02T06:34:05;6.20;;;2.22;;
75129;SDS011;63703;44.716;37.846;2023-05-02T06:36:32;4.70;;;2.08;;
75129;SDS011;63703;44.716;37.846;2023-05-02T06:38:58;5.05;;;2.15;;
75129;SDS011;63703;44.716;37.846;2023-05-02T06:41:24;4.32;;;2.42;;
75129;SDS011;63703;44.716;37.846;2023-05-02T06:43:49;7.07;;;2.80;;
75129;SDS011;63703;44.716;37.846;2023-05-02T06:46:15;4.00;;;1.90;;
75129;SDS011;63703;44.716;37.846;2023-05-02T06:48:42;4.70;;;1.85;;
75129;SDS011;63703;44.716;37.846;2023-05-02T06:51:08;4.63;;;2.33;;
75129;SDS011;63703;44.716;37.846;2023-05-02T06:53:35;6.65;;;2.47;;
75129;SDS011;63703;44.716;37.846;2023-05-02T06:56:01;9.93;;;2.97;;
75129;SDS011;63703;44.716;37.846;2023-05-02T06:58:28;4.18;;;2.17;;
75129;SDS011;63703;44.716;37.846;2023-05-02T07:00:55;4.30;;;2.15;;
75129;SDS011;63703;44.716;37.846;2023-05-02T07:03:20;4.25;;;2.72;;
75129;SDS011;63703;44.716;37.846;2023-05-02T07:05:46;4.75;;;3.75;;
75129;SDS011;63703;44.716;37.846;2023-05-02T07:08:12;4.15;;;2.88;;
75129;SDS011;63703;44.716;37.846;2023-05-02T07:10:38;6.57;;;3.65;;
75129;SDS011;63703;44.716;37.846;2023-05-02T07:13:04;4.13;;;2.13;;
75129;SDS011;63703;44.716;37.846;2023-05-02T07:15:30;3.28;;;1.98;;
75129;SDS011;63703;44.716;37.846;2023-05-02T07:17:56;5.78;;;2.67;;
75129;SDS011;63703;44.716;37.846;2023-05-02T07:20:22;3.67;;;1.83;;
75129;SDS011;63703;44.716;37.846;2023-05-02T07:22:48;3.17;;;1.30;;
75129;SDS011;63703;44.716;37.846;2023-05-02T07:25:14;5.22;;;2.20;;
75129;SDS011;63703;44.716;37.846;2023-05-02T07:27:40;2.80;;;1.83;;
75129;SDS011;63703;44.716;37.846;2023-05-02T07:30:06;3.67;;;2.42;;
75129;SDS011;63703;44.716;37.846;2023-05-02T07:32:32;3.70;;;1.77;;
75129;SDS011;63703;44.716;37.846;2023-05-02T07:34:58;2.88;;;1.50;;
75129;SDS011;63703;44.716;37.846;2023-05-02T07:37:24;3.35;;;2.60;;
75129;SDS011;63703;44.716;37.846;2023-05-02T07:39:50;3.08;;;1.48;;
75129;SDS011;63703;44.716;37.846;2023-05-02T07:42:17;2.75;;;1.27;;
75129;SDS011;63703;44.716;37.846;2023-05-02T07:44:43;3.13;;;1.60;;
75129;SDS011;63703;44.716;37.846;2023-05-02T07:47:08;3.38;;;1.02;;
75129;SDS011;63703;44.716;37.846;2023-05-02T07:49:34;3.70;;;1.63;;
75129;SDS011;63703;44.716;37.846;2023-05-02T07:52:01;3.85;;;1.50;;
75129;SDS011;63703;44.716;37.846;2023-05-02T07:54:27;4.75;;;1.40;;
75129;SDS011;63703;44.716;37.846;2023-05-02T07:56:53;3.58;;;2.15;;
75129;SDS011;63703;44.716;37.846;2023-05-02T07:59:21;5.63;;;1.63;;
75129;SDS011;63703;44.716;37.846;2023-05-02T08:01:47;4.38;;;1.77;;
75129;SDS011;63703;44.716;37.846;2023-05-02T08:04:13;6.03;;;1.95;;
75129;SDS011;63703;44.716;37.846;2023-05-02T08:06:40;2.72;;;1.23;;
75129;SDS011;63703;44.716;37.846;2023-05-02T08:09:06;4.68;;;1.65;;
75129;SDS011;63703;44.716;37.846;2023-05-02T08:11:33;3.53;;;1.70;;
75129;SDS011;63703;44.716;37.846;2023-05-02T08:13:59;3.60;;;1.58;;
75129;SDS011;63703;44.716;37.846;2023-05-02T08:16:25;3.33;;;1.80;;
75129;SDS011;63703;44.716;37.846;2023-05-02T08:18:51;2.70;;;1.38;;
75129;SDS011;63703;44.716;37.846;2023-05-02T08:21:17;3.03;;;1.00;;
75129;SDS011;63703;44.716;37.846;2023-05-02T08:23:43;3.70;;;1.55;;
75129;SDS011;63703;44.716;37.846;2023-05-02T08:26:10;4.40;;;1.85;;
75129;SDS011;63703;44.716;37.846;2023-05-02T08:28:36;4.60;;;1.90;;
75129;SDS011;63703;44.716;37.846;2023-05-02T08:31:02;4.95;;;2.30;;
75129;SDS011;63703;44.716;37.846;2023-05-02T08:33:28;5.68;;;1.70;;
75129;SDS011;63703;44.716;37.846;2023-05-02T08:35:54;3.05;;;1.27;;
75129;SDS011;63703;44.716;37.846;2023-05-02T08:38:20;3.35;;;1.73;;
75129;SDS011;63703;44.716;37.846;2023-05-02T08:40:46;2.88;;;1.30;;
75129;SDS011;63703;44.716;37.846;2023-05-02T08:43:12;4.75;;;1.00;;
75129;SDS011;63703;44.716;37.846;2023-05-02T08:45:41;3.65;;;1.13;;
75129;SDS011;63703;44.716;37.846;2023-05-02T08:48:09;3.42;;;2.58;;
75129;SDS011;63703;44.716;37.846;2023-05-02T08:50:39;6.20;;;1.25;;
75129;SDS011;63703;44.716;37.846;2023-05-02T08:53:12;3.45;;;2.38;;
75129;SDS011;63703;44.716;37.846;2023-05-02T08:55:39;2.55;;;1.55;;
75129;SDS011;63703;44.716;37.846;2023-05-02T08:58:07;3.00;;;1.45;;
75129;SDS011;63703;44.716;37.846;2023-05-02T09:00:40;5.85;;;1.33;;
75129;SDS011;63703;44.716;37.846;2023-05-02T09:06:14;3.88;;;1.38;;
75129;SDS011;63703;44.716;37.846;2023-05-02T09:08:45;4.28;;;1.25;;
75129;SDS011;63703;44.716;37.846;2023-05-02T09:11:17;3.58;;;1.20;;
75129;SDS011;63703;44.716;37.846;2023-05-02T09:13:45;7.20;;;2.03;;
75129;SDS011;63703;44.716;37.846;2023-05-02T09:16:13;3.58;;;0.95;;
75129;SDS011;63703;44.716;37.846;2023-05-02T09:18:44;6.07;;;2.45;;
75129;SDS011;63703;44.716;37.846;2023-05-02T09:21:17;3.78;;;1.92;;
75129;SDS011;63703;44.716;37.846;2023-05-02T09:24:17;5.82;;;1.45;;
75129;SDS011;63703;44.716;37.846;2023-05-02T09:26:41;4.47;;;1.20;;
75129;SDS011;63703;44.716;37.846;2023-05-02T09:29:07;3.75;;;1.48;;
75129;SDS011;63703;44.716;37.846;2023-05-02T09:31:34;2.42;;;0.98;;
75129;SDS011;63703;44.716;37.846;2023-05-02T09:34:07;3.10;;;1.42;;
75129;SDS011;63703;44.716;37.846;2023-05-02T09:36:44;3.95;;;2.13;;
75129;SDS011;63703;44.716;37.846;2023-05-02T09:39:12;1.90;;;1.27;;
75129;SDS011;63703;44.716;37.846;2023-05-02T09:41:43;4.25;;;1.45;;
75129;SDS011;63703;44.716;37.846;2023-05-02T09:44:17;3.08;;;1.02;;
75129;SDS011;63703;44.716;37.846;2023-05-02T09:46:49;5.85;;;1.35;;
75129;SDS011;63703;44.716;37.846;2023-05-02T09:49:17;5.95;;;1.40;;
75129;SDS011;63703;44.716;37.846;2023-05-02T09:51:43;6.18;;;1.25;;
75129;SDS011;63703;44.716;37.846;2023-05-02T09:54:13;7.63;;;2.13;;
75129;SDS011;63703;44.716;37.846;2023-05-02T09:56:52;4.30;;;1.08;;
75129;SDS011;63703;44.716;37.846;2023-05-02T09:59:23;4.65;;;0.93;;
75129;SDS011;63703;44.716;37.846;2023-05-02T10:01:53;4.65;;;0.82;;
75129;SDS011;63703;44.716;37.846;2023-05-02T10:04:21;7.68;;;1.42;;
75129;SDS011;63703;44.716;37.846;2023-05-02T10:06:47;3.85;;;0.85;;
75129;SDS011;63703;44.716;37.846;2023-05-02T10:09:15;4.15;;;1.15;;
75129;SDS011;63703;44.716;37.846;2023-05-02T10:11:44;6.15;;;1.58;;
75129;SDS011;63703;44.716;37.846;2023-05-02T10:14:10;6.00;;;1.08;;
75129;SDS011;63703;44.716;37.846;2023-05-02T10:16:37;4.45;;;0.93;;
75129;SDS011;63703;44.716;37.846;2023-05-02T10:19:38;5.45;;;1.40;;
75129;SDS011;63703;44.716;37.846;2023-05-02T10:22:09;6.28;;;1.13;;
75129;SDS011;63703;44.716;37.846;2023-05-02T10:24:37;7.07;;;2.63;;
75129;SDS011;63703;44.716;37.846;2023-05-02T10:27:05;11.48;;;2.08;;
75129;SDS011;63703;44.716;37.846;2023-05-02T10:29:32;6.72;;;2.20;;
75129;SDS011;63703;44.716;37.846;2023-05-02T10:31:59;6.65;;;1.15;;
75129;SDS011;63703;44.716;37.846;2023-05-02T10:34:29;8.77;;;2.00;;
75129;SDS011;63703;44.716;37.846;2023-05-02T10:36:57;9.98;;;1.30;;
75129;SDS011;63703;44.716;37.846;2023-05-02T10:39:25;5.15;;;1.13;;
75129;SDS011;63703;44.716;37.846;2023-05-02T10:41:53;6.88;;;1.15;;
75129;SDS011;63703;44.716;37.846;2023-05-02T10:44:37;9.10;;;2.03;;
75129;SDS011;63703;44.716;37.846;2023-05-02T10:47:19;3.83;;;0.98;;
75129;SDS011;63703;44.716;37.846;2023-05-02T10:49:50;6.63;;;2.08;;
75129;SDS011;63703;44.716;37.846;2023-05-02T10:55:13;4.88;;;1.98;;
75129;SDS011;63703;44.716;37.846;2023-05-02T11:00:25;5.45;;;1.00;;
75129;SDS011;63703;44.716;37.846;2023-05-02T11:02:57;7.10;;;1.77;;
75129;SDS011;63703;44.716;37.846;2023-05-02T11:05:23;7.40;;;0.80;;
75129;SDS011;63703;44.716;37.846;2023-05-02T11:08:35;7.68;;;1.73;;
75129;SDS011;63703;44.716;37.846;2023-05-02T11:10:45;7.38;;;2.20;;
75129;SDS011;63703;44.716;37.846;2023-05-02T11:13:11;4.25;;;1.40;;
75129;SDS011;63703;44.716;37.846;2023-05-02T11:18:06;3.17;;;1.05;;
75129;SDS011;63703;44.716;37.846;2023-05-02T11:20:37;4.57;;;0.98;;
75129;SDS011;63703;44.716;37.846;2023-05-02T11:25:49;7.35;;;1.25;;
75129;SDS011;63703;44.716;37.846;2023-05-02T11:31:09;2.65;;;1.27;;
75129;SDS011;63703;44.716;37.846;2023-05-02T11:33:58;5.13;;;1.08;;
75129;SDS011;63703;44.716;37.846;2023-05-02T11:36:31;4.65;;;0.73;;
75129;SDS011;63703;44.716;37.846;2023-05-02T11:38:58;6.50;;;2.72;;
75129;SDS011;63703;44.716;37.846;2023-05-02T11:41:41;5.68;;;1.80;;
75129;SDS011;63703;44.716;37.846;2023-05-02T11:44:07;3.40;;;1.05;;
75129;SDS011;63703;44.716;37.846;2023-05-02T11:46:36;4.35;;;1.35;;
75129;SDS011;63703;44.716;37.846;2023-05-02T11:49:04;6.75;;;1.77;;
75129;SDS011;63703;44.716;37.846;2023-05-02T11:51:30;5.18;;;1.75;;
75129;SDS011;63703;44.716;37.846;2023-05-02T11:53:56;4.53;;;2.05;;
75129;SDS011;63703;44.716;37.846;2023-05-02T11:56:23;3.95;;;1.60;;
75129;SDS011;63703;44.716;37.846;2023-05-02T11:59:00;5.38;;;1.63;;
75129;SDS011;63703;44.716;37.846;2023-05-02T12:01:27;5.10;;;0.93;;
75129;SDS011;63703;44.716;37.846;2023-05-02T12:04:03;5.95;;;1.13;;
75129;SDS011;63703;44.716;37.846;2023-05-02T12:06:31;4.47;;;2.00;;
75129;SDS011;63703;44.716;37.846;2023-05-02T12:09:12;7.57;;;1.55;;
75129;SDS011;63703;44.716;37.846;2023-05-02T12:11:43;4.43;;;1.00;;
75129;SDS011;63703;44.716;37.846;2023-05-02T12:14:09;4.10;;;1.00;;
75129;SDS011;63703;44.716;37.846;2023-05-02T12:16:35;3.97;;;0.68;;
75129;SDS011;63703;44.716;37.846;2023-05-02T12:19:01;2.50;;;0.77;;
75129;SDS011;63703;44.716;37.846;2023-05-02T12:21:28;3.05;;;1.38;;
75129;SDS011;63703;44.716;37.846;2023-05-02T12:23:55;2.58;;;1.00;;
75129;SDS011;63703;44.716;37.846;2023-05-02T12:26:24;3.83;;;1.33;;
75129;SDS011;63703;44.716;37.846;2023-05-02T12:28:53;4.63;;;1.08;;
75129;SDS011;63703;44.716;37.846;2023-05-02T12:31:19;3.40;;;0.95;;
75129;SDS011;63703;44.716;37.846;2023-05-02T12:33:46;4.03;;;0.77;;
75129;SDS011;63703;44.716;37.846;2023-05-02T12:36:19;2.60;;;0.98;;
75129;SDS011;63703;44.716;37.846;2023-05-02T12:38:52;1.98;;;0.57;;
75129;SDS011;63703;44.716;37.846;2023-05-02T12:44:03;7.18;;;1.85;;
75129;SDS011;63703;44.716;37.846;2023-05-02T12:46:29;7.38;;;1.88;;
75129;SDS011;63703;44.716;37.846;2023-05-02T12:49:08;7.22;;;1.45;;
75129;SDS011;63703;44.716;37.846;2023-05-02T12:51:37;4.22;;;1.70;;
75129;SDS011;63703;44.716;37.846;2023-05-02T12:54:04;4.47;;;1.40;;
75129;SDS011;63703;44.716;37.846;2023-05-02T12:56:41;8.68;;;2.80;;
75129;SDS011;63703;44.716;37.846;2023-05-02T12:59:10;6.35;;;1.67;;
75129;SDS011;63703;44.716;37.846;2023-05-02T13:01:54;5.00;;;1.05;;
75129;SDS011;63703;44.716;37.846;2023-05-02T13:04:33;11.07;;;5.35;;
75129;SDS011;63703;44.716;37.846;2023-05-02T13:07:04;8.40;;;2.45;;
75129;SDS011;63703;44.716;37.846;2023-05-02T13:09:33;9.18;;;3.92;;
75129;SDS011;63703;44.716;37.846;2023-05-02T13:12:00;8.18;;;2.08;;
75129;SDS011;63703;44.716;37.846;2023-05-02T13:14:28;12.40;;;6.40;;
75129;SDS011;63703;44.716;37.846;2023-05-02T13:16:54;6.88;;;3.63;;
75129;SDS011;63703;44.716;37.846;2023-05-02T13:19:20;3.78;;;2.22;;
75129;SDS011;63703;44.716;37.846;2023-05-02T13:21:47;7.60;;;2.38;;
75129;SDS011;63703;44.716;37.846;2023-05-02T13:24:13;7.47;;;1.92;;
75129;SDS011;63703;44.716;37.846;2023-05-02T13:26:41;7.40;;;1.98;;
75129;SDS011;63703;44.716;37.846;2023-05-02T13:29:08;5.07;;;2.22;;
75129;SDS011;63703;44.716;37.846;2023-05-02T13:31:36;6.88;;;2.08;;
75129;SDS011;63703;44.716;37.846;2023-05-02T13:34:05;6.60;;;1.70;;
75129;SDS011;63703;44.716;37.846;2023-05-02T13:36:31;5.70;;;1.42;;
75129;SDS011;63703;44.716;37.846;2023-05-02T13:38:57;3.78;;;1.27;;
75129;SDS011;63703;44.716;37.846;2023-05-02T13:41:23;3.63;;;1.42;;
75129;SDS011;63703;44.716;37.846;2023-05-02T13:43:49;3.40;;;1.77;;
75129;SDS011;63703;44.716;37.846;2023-05-02T13:46:15;3.40;;;0.82;;
75129;SDS011;63703;44.716;37.846;2023-05-02T13:48:41;7.68;;;2.67;;
75129;SDS011;63703;44.716;37.846;2023-05-02T13:51:07;3.55;;;1.35;;
75129;SDS011;63703;44.716;37.846;2023-05-02T13:53:33;7.95;;;1.73;;
75129;SDS011;63703;44.716;37.846;2023-05-02T13:56:00;4.28;;;1.60;;
75129;SDS011;63703;44.716;37.846;2023-05-02T13:58:26;4.28;;;1.15;;
75129;SDS011;63703;44.716;37.846;2023-05-02T14:00:52;3.03;;;1.20;;
75129;SDS011;63703;44.716;37.846;2023-05-02T14:03:18;5.32;;;1.48;;
75129;SDS011;63703;44.716;37.846;2023-05-02T14:05:44;5.80;;;1.23;;
75129;SDS011;63703;44.716;37.846;2023-05-02T14:08:10;4.32;;;2.28;;
75129;SDS011;63703;44.716;37.846;2023-05-02T14:10:37;4.18;;;1.27;;
75129;SDS011;63703;44.716;37.846;2023-05-02T14:13:03;3.80;;;1.10;;
75129;SDS011;63703;44.716;37.846;2023-05-02T14:15:29;3.95;;;1.95;;
75129;SDS011;63703;44.716;37.846;2023-05-02T14:17:55;3.25;;;1.00;;
75129;SDS011;63703;44.716;37.846;2023-05-02T14:20:21;4.20;;;1.40;;
75129;SDS011;63703;44.716;37.846;2023-05-02T14:22:48;5.07;;;2.00;;
75129;SDS011;63703;44.716;37.846;2023-05-02T14:25:14;3.38;;;1.75;;
75129;SDS011;63703;44.716;37.846;2023-05-02T14:27:44;3.58;;;1.17;;
75129;SDS011;63703;44.716;37.846;2023-05-02T14:30:11;3.67;;;1.27;;
75129;SDS011;63703;44.716;37.846;2023-05-02T14:32:38;3.58;;;1.38;;
75129;SDS011;63703;44.716;37.846;2023-05-02T14:35:04;4.18;;;1.35;;
75129;SDS011;63703;44.716;37.846;2023-05-02T14:37:30;5.30;;;1.65;;
75129;SDS011;63703;44.716;37.846;2023-05-02T14:39:56;5.57;;;1.27;;
75129;SDS011;63703;44.716;37.846;2023-05-02T14:42:23;8.27;;;1.88;;
75129;SDS011;63703;44.716;37.846;2023-05-02T14:44:49;3.90;;;1.80;;
75129;SDS011;63703;44.716;37.846;2023-05-02T14:47:16;4.60;;;1.20;;
75129;SDS011;63703;44.716;37.846;2023-05-02T14:49:42;5.97;;;1.65;;
75129;SDS011;63703;44.716;37.846;2023-05-02T14:52:08;5.30;;;1.38;;
75129;SDS011;63703;44.716;37.846;2023-05-02T14:54:34;4.82;;;1.23;;
75129;SDS011;63703;44.716;37.846;2023-05-02T14:57:00;3.60;;;1.33;;
75129;SDS011;63703;44.716;37.846;2023-05-02T14:59:30;5.72;;;1.52;;
75129;SDS011;63703;44.716;37.846;2023-05-02T15:01:57;2.50;;;1.23;;
75129;SDS011;63703;44.716;37.846;2023-05-02T15:04:22;4.43;;;1.17;;
75129;SDS011;63703;44.716;37.846;2023-05-02T15:06:50;4.15;;;0.93;;
75129;SDS011;63703;44.716;37.846;2023-05-02T15:09:18;3.35;;;0.85;;
75129;SDS011;63703;44.716;37.846;2023-05-02T15:11:44;4.50;;;1.63;;
75129;SDS011;63703;44.716;37.846;2023-05-02T15:14:10;4.13;;;0.93;;
75129;SDS011;63703;44.716;37.846;2023-05-02T15:16:36;2.50;;;0.88;;
75129;SDS011;63703;44.716;37.846;2023-05-02T15:19:03;3.42;;;0.88;;
75129;SDS011;63703;44.716;37.846;2023-05-02T15:21:29;4.50;;;1.10;;
75129;SDS011;63703;44.716;37.846;2023-05-02T15:23:56;5.45;;;1.17;;
75129;SDS011;63703;44.716;37.846;2023-05-02T15:26:22;4.13;;;0.77;;